Time;durP1;ratioP1;P1;durP2;ratioP2;P2;SDS_P1;SDS_P2;PMS_P1;PMS_P2;Temp;Humidity;BMP_temperature;BMP_pressure;BME280_temperature;BME280_humidity;BME280_pressure;Samples;Min_cycle;Max_cycle;Signal;HPM_P1;HPM_P2
2023/08/18 00:00:31;;;;;;;0.73;0.73;;;23.60;99.90;;;;;;5075519;28;20189;-70
2023/08/18 00:02:58;;;;;;;1.00;0.90;;;23.60;99.90;;;;;;5072514;28;20637;-70
2023/08/18 00:05:26;;;;;;;0.73;0.73;;;23.60;99.90;;;;;;5067641;28;20293;-70
2023/08/18 00:07:53;;;;;;;0.90;0.90;;;23.60;99.90;;;;;;5074709;28;20987;-69
2023/08/18 00:10:21;;;;;;;0.80;0.80;;;23.60;99.90;;;;;;5091725;28;20196;-69
2023/08/18 00:12:48;;;;;;;0.80;0.80;;;23.60;99.90;;;;;;5090759;28;20211;-69
2023/08/18 00:15:15;;;;;;;0.70;0.70;;;23.60;99.90;;;;;;5090019;28;20624;-69
2023/08/18 00:17:42;;;;;;;0.82;0.82;;;23.60;99.90;;;;;;5089888;28;20208;-70
2023/08/18 00:20:10;;;;;;;0.70;0.70;;;23.60;99.90;;;;;;5087542;28;20217;-71
2023/08/18 00:22:45;;;;;;;0.70;0.70;;;23.60;99.90;;;;;;5088857;28;20277;-70
2023/08/18 00:25:12;;;;;;;0.82;0.82;;;23.60;99.90;;;;;;5088971;28;20208;-69
2023/08/18 00:27:39;;;;;;;0.90;0.90;;;23.60;99.90;;;;;;5087421;28;20288;-71
2023/08/18 00:30:10;;;;;;;0.80;0.80;;;23.60;99.90;;;;;;5089400;28;20607;-70
2023/08/18 00:32:38;;;;;;;1.15;0.98;;;23.50;99.90;;;;;;5084266;28;20205;-69
2023/08/18 00:35:06;;;;;;;0.80;0.80;;;23.60;99.90;;;;;;5077580;28;20193;-69
2023/08/18 00:37:33;;;;;;;0.80;0.80;;;23.60;99.90;;;;;;5083625;28;20683;-69
2023/08/18 00:40:02;;;;;;;1.05;0.75;;;23.60;99.90;;;;;;5078468;28;20264;-68
2023/08/18 00:42:29;;;;;;;1.25;0.90;;;23.60;99.90;;;;;;5082386;28;20624;-68
2023/08/18 00:44:56;;;;;;;1.05;1.00;;;23.60;99.90;;;;;;5079222;28;20224;-69
2023/08/18 00:47:24;;;;;;;0.80;0.80;;;23.60;99.90;;;;;;5080356;28;20193;-69
2023/08/18 00:49:52;;;;;;;0.80;0.80;;;23.60;99.90;;;;;;5080917;28;20682;-71
2023/08/18 00:52:20;;;;;;;0.93;0.85;;;23.60;99.90;;;;;;5077067;28;20573;-70
2023/08/18 00:54:50;;;;;;;2.22;1.00;;;23.60;99.90;;;;;;5075307;28;20207;-69
2023/08/18 00:57:20;;;;;;;0.80;0.80;;;23.60;99.90;;;;;;5071978;28;20303;-70
2023/08/18 00:59:47;;;;;;;1.30;0.90;;;23.60;99.90;;;;;;5071414;28;20729;-69
2023/08/18 01:02:15;;;;;;;0.98;0.98;;;23.60;99.90;;;;;;5074603;28;20565;-69
2023/08/18 01:04:42;;;;;;;0.80;0.80;;;23.60;99.90;;;;;;5078049;28;20778;-70
2023/08/18 01:07:09;;;;;;;1.05;1.02;;;23.60;99.90;;;;;;5065119;28;20196;-69
2023/08/18 01:09:36;;;;;;;1.00;1.00;;;23.60;99.90;;;;;;5073680;28;20208;-69
2023/08/18 01:12:13;;;;;;;0.88;0.88;;;23.60;99.90;;;;;;5078600;28;20192;-70
2023/08/18 01:14:55;;;;;;;0.77;0.77;;;23.50;99.90;;;;;;5070572;28;20197;-70
2023/08/18 01:17:28;;;;;;;0.80;0.80;;;23.50;99.90;;;;;;5073197;28;20221;-70
2023/08/18 01:19:55;;;;;;;0.90;0.90;;;23.50;99.90;;;;;;5073319;28;20216;-69
2023/08/18 01:22:25;;;;;;;0.77;0.77;;;23.50;99.90;;;;;;5082705;28;20248;-69
2023/08/18 01:25:00;;;;;;;1.13;1.00;;;23.50;99.90;;;;;;5076935;28;20209;-69
2023/08/18 01:27:29;;;;;;;0.90;0.90;;;23.50;99.90;;;;;;5068572;28;20200;-69
2023/08/18 01:29:57;;;;;;;0.73;0.73;;;23.50;99.90;;;;;;5081176;28;20197;-69
2023/08/18 01:32:29;;;;;;;0.80;0.80;;;23.50;99.90;;;;;;5073022;28;20190;-70
2023/08/18 01:34:58;;;;;;;0.80;0.80;;;23.50;99.90;;;;;;5079533;28;20199;-69
2023/08/18 01:37:27;;;;;;;0.90;0.70;;;23.50;99.90;;;;;;5072351;28;20228;-69
2023/08/18 01:39:56;;;;;;;0.82;0.82;;;23.50;99.90;;;;;;5076928;28;20209;-69
2023/08/18 01:42:24;;;;;;;0.95;0.90;;;23.50;99.90;;;;;;5071934;28;20215;-68
2023/08/18 01:44:51;;;;;;;0.90;0.90;;;23.50;99.90;;;;;;5079865;28;20213;-69
2023/08/18 01:47:18;;;;;;;0.70;0.70;;;23.50;99.90;;;;;;5073286;28;20205;-70
2023/08/18 01:49:45;;;;;;;0.77;0.77;;;23.50;99.90;;;;;;5079629;28;20258;-69
2023/08/18 01:52:12;;;;;;;0.70;0.70;;;23.50;99.90;;;;;;5073791;28;20197;-70
2023/08/18 01:54:40;;;;;;;0.70;0.70;;;23.50;99.90;;;;;;5074997;28;20680;-70
2023/08/18 01:57:09;;;;;;;0.80;0.80;;;23.50;99.90;;;;;;5072184;28;20193;-70
2023/08/18 01:59:36;;;;;;;0.60;0.60;;;23.50;99.90;;;;;;5074882;28;20242;-70
2023/08/18 02:02:03;;;;;;;1.60;0.88;;;23.50;99.90;;;;;;5068995;28;20208;-70
2023/08/18 02:04:30;;;;;;;0.82;0.80;;;23.50;99.90;;;;;;5072920;28;20209;-70
2023/08/18 02:06:57;;;;;;;0.60;0.60;;;23.50;99.90;;;;;;5070468;28;20193;-69
2023/08/18 02:09:25;;;;;;;0.80;0.80;;;23.50;99.90;;;;;;5087131;28;20299;-69
2023/08/18 02:11:52;;;;;;;0.77;0.77;;;23.50;99.90;;;;;;5070209;28;20572;-69
2023/08/18 02:14:20;;;;;;;0.80;0.80;;;23.50;99.90;;;;;;5064384;28;20201;-70
2023/08/18 02:16:48;;;;;;;0.93;0.93;;;23.40;99.90;;;;;;5069413;28;20656;-69
2023/08/18 02:19:15;;;;;;;1.05;0.90;;;23.40;99.90;;;;;;5075181;28;20196;-69
2023/08/18 02:21:42;;;;;;;0.80;0.80;;;23.30;99.90;;;;;;5067950;28;20197;-70
2023/08/18 02:24:11;;;;;;;0.93;0.82;;;23.30;99.90;;;;;;5073216;28;20226;-69
2023/08/18 02:26:38;;;;;;;0.75;0.75;;;23.30;99.90;;;;;;5077394;28;20204;-69
2023/08/18 02:29:05;;;;;;;0.80;0.80;;;23.30;99.90;;;;;;5075995;28;20675;-69
2023/08/18 02:31:34;;;;;;;1.00;1.00;;;23.30;99.90;;;;;;5078772;28;20206;-70
2023/08/18 02:34:02;;;;;;;0.80;0.80;;;23.30;99.90;;;;;;5078952;28;20192;-69
2023/08/18 02:36:29;;;;;;;1.30;0.80;;;23.30;99.90;;;;;;5076116;28;20658;-69
2023/08/18 02:38:56;;;;;;;0.60;0.60;;;23.30;99.90;;;;;;5075452;28;20718;-70
2023/08/18 02:41:24;;;;;;;1.00;1.00;;;23.30;99.90;;;;;;5071664;28;20529;-69
2023/08/18 02:43:51;;;;;;;0.77;0.77;;;23.30;99.90;;;;;;5077632;28;20286;-69
2023/08/18 02:46:19;;;;;;;0.82;0.82;;;23.30;99.90;;;;;;5077945;28;20227;-70
2023/08/18 02:48:48;;;;;;;0.88;0.88;;;23.30;99.90;;;;;;5074650;28;20669;-69
2023/08/18 02:51:15;;;;;;;0.82;0.82;;;23.30;99.90;;;;;;5072142;28;20208;-69
2023/08/18 02:53:44;;;;;;;0.98;0.98;;;23.20;99.90;;;;;;5085966;28;20196;-69
2023/08/18 02:56:12;;;;;;;0.90;0.90;;;23.20;99.90;;;;;;5072381;28;20190;-70
2023/08/18 02:58:39;;;;;;;1.02;1.02;;;23.20;99.90;;;;;;5082221;28;20246;-70
2023/08/18 03:01:07;;;;;;;0.90;0.90;;;23.30;99.90;;;;;;5069221;28;20225;-70
2023/08/18 03:03:34;;;;;;;1.10;1.10;;;23.30;99.90;;;;;;5076460;28;20200;-69
2023/08/18 03:06:05;;;;;;;1.15;1.15;;;23.20;99.90;;;;;;5073091;28;20204;-69
2023/08/18 03:08:34;;;;;;;0.80;0.80;;;23.20;99.90;;;;;;5087653;28;20651;-69
2023/08/18 03:11:02;;;;;;;0.93;0.93;;;23.30;99.90;;;;;;5073614;28;20197;-69
2023/08/18 03:13:29;;;;;;;1.08;1.00;;;23.30;99.90;;;;;;5074791;28;20201;-69
2023/08/18 03:15:56;;;;;;;1.20;1.10;;;23.30;99.90;;;;;;5073846;28;20197;-70
2023/08/18 03:18:24;;;;;;;1.05;1.02;;;23.30;99.90;;;;;;5085320;28;20629;-69
2023/08/18 03:20:57;;;;;;;0.93;0.90;;;23.30;99.90;;;;;;5066750;28;20200;-68
2023/08/18 03:23:26;;;;;;;0.73;0.73;;;23.30;99.90;;;;;;5089060;28;20235;-70
2023/08/18 03:25:58;;;;;;;1.10;1.10;;;23.30;99.90;;;;;;5079032;28;20292;-69
2023/08/18 03:28:25;;;;;;;0.77;0.77;;;23.30;99.90;;;;;;5084158;28;20664;-69
2023/08/18 03:30:53;;;;;;;0.70;0.70;;;23.30;99.90;;;;;;5090288;28;20215;-68
2023/08/18 03:33:20;;;;;;;0.90;0.90;;;23.30;99.90;;;;;;5084719;28;20220;-69
2023/08/18 03:35:49;;;;;;;0.77;0.77;;;23.30;99.90;;;;;;5076384;28;20228;-70
2023/08/18 03:38:16;;;;;;;0.80;0.80;;;23.30;99.90;;;;;;5078420;28;20209;-69
2023/08/18 03:40:45;;;;;;;0.90;0.90;;;23.30;99.90;;;;;;5083276;28;20204;-69
2023/08/18 03:43:12;;;;;;;0.82;0.80;;;23.30;99.90;;;;;;5081774;28;20656;-69
2023/08/18 03:45:39;;;;;;;1.00;1.00;;;23.30;99.90;;;;;;5077898;28;20568;-69
2023/08/18 03:48:08;;;;;;;1.00;0.90;;;23.30;99.90;;;;;;5073407;28;20205;-69
2023/08/18 03:50:35;;;;;;;0.80;0.80;;;23.30;99.90;;;;;;5064839;28;20251;-70
2023/08/18 03:53:03;;;;;;;1.13;1.02;;;23.20;99.90;;;;;;5078389;28;20271;-69
2023/08/18 03:55:30;;;;;;;0.73;0.73;;;23.20;99.90;;;;;;5084789;28;20196;-70
2023/08/18 03:57:59;;;;;;;0.93;0.93;;;23.20;99.90;;;;;;5078028;28;20205;-69
2023/08/18 04:00:26;;;;;;;1.02;1.02;;;23.20;99.90;;;;;;5084619;28;20223;-69
2023/08/18 04:02:53;;;;;;;0.93;0.93;;;23.20;99.90;;;;;;5078004;28;20185;-70
2023/08/18 04:05:21;;;;;;;0.95;0.95;;;23.10;99.90;;;;;;5078265;28;20261;-70
2023/08/18 04:07:48;;;;;;;1.10;1.10;;;23.10;99.90;;;;;;5077382;28;20201;-69
2023/08/18 04:10:15;;;;;;;0.90;0.90;;;23.10;99.90;;;;;;5091220;28;20200;-70
2023/08/18 04:12:42;;;;;;;1.25;1.17;;;23.10;99.90;;;;;;5081471;28;20208;-70
2023/08/18 04:15:11;;;;;;;1.55;1.10;;;23.10;99.90;;;;;;5084564;28;20250;-70
2023/08/18 04:17:38;;;;;;;1.00;1.00;;;23.10;99.90;;;;;;5073739;28;20193;-70
2023/08/18 04:20:08;;;;;;;1.20;1.10;;;23.10;99.90;;;;;;5087088;28;20204;-70
2023/08/18 04:22:36;;;;;;;1.42;1.30;;;23.10;99.90;;;;;;5074534;28;20200;-70
2023/08/18 04:25:03;;;;;;;1.73;1.63;;;23.10;99.90;;;;;;5074458;28;20288;-69
2023/08/18 04:27:48;;;;;;;0.95;0.95;;;23.10;99.90;;;;;;5086921;28;20208;-69
2023/08/18 04:30:17;;;;;;;1.20;1.10;;;23.10;99.90;;;;;;5086388;28;20239;-69
2023/08/18 04:32:44;;;;;;;0.85;0.85;;;23.10;99.90;;;;;;5078945;28;20194;-69
2023/08/18 04:35:12;;;;;;;1.20;1.10;;;23.10;99.90;;;;;;5081004;28;20212;-69
2023/08/18 04:37:40;;;;;;;1.20;1.10;;;23.10;99.90;;;;;;5088860;28;20275;-69
2023/08/18 04:40:08;;;;;;;1.40;1.20;;;23.10;99.90;;;;;;5082874;28;20557;-69
2023/08/18 04:42:35;;;;;;;0.90;0.90;;;23.10;99.90;;;;;;5088459;28;20197;-69
2023/08/18 04:45:04;;;;;;;1.58;1.00;;;23.20;99.90;;;;;;5086669;28;20205;-69
2023/08/18 04:47:32;;;;;;;0.98;0.98;;;23.20;99.90;;;;;;5079245;28;20205;-69
2023/08/18 04:50:00;;;;;;;2.15;1.08;;;23.20;99.90;;;;;;5103019;28;20212;-70
2023/08/18 04:52:28;;;;;;;1.00;1.00;;;23.20;99.90;;;;;;5077265;28;20702;-71
2023/08/18 04:54:55;;;;;;;0.70;0.70;;;23.20;99.90;;;;;;5082139;28;20211;-70
2023/08/18 04:57:22;;;;;;;0.95;0.95;;;23.20;99.90;;;;;;5077427;28;20196;-70
2023/08/18 04:59:50;;;;;;;1.40;1.30;;;23.30;99.90;;;;;;5079120;28;20201;-69
2023/08/18 05:02:17;;;;;;;0.90;0.90;;;23.30;99.90;;;;;;5071942;28;20312;-69
2023/08/18 05:04:46;;;;;;;0.93;0.82;;;23.30;99.90;;;;;;5077881;28;20212;-69
2023/08/18 05:07:14;;;;;;;0.90;0.90;;;23.30;99.90;;;;;;5072562;28;20236;-69
2023/08/18 05:09:42;;;;;;;0.85;0.85;;;23.30;99.90;;;;;;5070750;28;20201;-69
2023/08/18 05:12:09;;;;;;;1.15;1.05;;;23.30;99.90;;;;;;5068900;28;20216;-69
2023/08/18 05:14:36;;;;;;;1.17;1.15;;;23.30;99.90;;;;;;5081399;28;20205;-69
2023/08/18 05:17:03;;;;;;;1.60;1.10;;;23.30;99.90;;;;;;5086908;28;20194;-69
2023/08/18 05:19:30;;;;;;;1.00;1.00;;;23.30;99.90;;;;;;5080433;28;20332;-69
2023/08/18 05:22:00;;;;;;;2.33;1.40;;;23.30;99.90;;;;;;5076500;28;20807;-69
2023/08/18 05:24:27;;;;;;;1.20;1.08;;;23.30;99.90;;;;;;5085245;28;20229;-69
2023/08/18 05:26:55;;;;;;;1.63;1.30;;;23.30;99.90;;;;;;5081729;28;20219;-69
2023/08/18 05:29:22;;;;;;;1.45;1.35;;;23.30;99.90;;;;;;5081423;28;20243;-69
2023/08/18 05:31:50;;;;;;;1.50;1.42;;;23.30;99.90;;;;;;5081949;28;20279;-70
2023/08/18 05:34:17;;;;;;;2.08;1.48;;;23.30;99.90;;;;;;5083866;28;20197;-70
2023/08/18 05:36:44;;;;;;;1.85;1.75;;;23.30;99.90;;;;;;5080824;28;20197;-70
2023/08/18 05:39:12;;;;;;;1.67;1.58;;;23.30;99.90;;;;;;5080094;28;20242;-70
2023/08/18 05:41:39;;;;;;;2.72;1.80;;;23.30;99.90;;;;;;5080039;28;20197;-70
2023/08/18 05:44:07;;;;;;;3.85;2.20;;;23.30;99.90;;;;;;5078453;28;20554;-70
2023/08/18 05:46:34;;;;;;;2.03;1.88;;;23.40;99.90;;;;;;5078048;28;20209;-71
2023/08/18 05:49:02;;;;;;;3.38;2.20;;;23.40;99.90;;;;;;5074572;28;20204;-70
2023/08/18 05:51:29;;;;;;;1.95;1.85;;;23.40;99.90;;;;;;5077563;28;20220;-70
2023/08/18 05:53:57;;;;;;;1.92;1.83;;;23.40;99.90;;;;;;5079959;28;20200;-69
2023/08/18 05:56:25;;;;;;;1.80;1.70;;;23.50;99.90;;;;;;5071218;28;20196;-69
2023/08/18 05:58:52;;;;;;;2.72;2.15;;;23.50;99.90;;;;;;5080963;28;20188;-69
2023/08/18 06:01:19;;;;;;;2.53;2.33;;;23.50;99.90;;;;;;5068626;28;20319;-71
2023/08/18 06:03:46;;;;;;;3.38;2.35;;;23.60;99.90;;;;;;5060054;28;20212;-72
2023/08/18 06:06:13;;;;;;;3.10;2.13;;;23.50;99.90;;;;;;5068596;28;20224;-71
2023/08/18 06:08:40;;;;;;;2.53;2.33;;;23.60;99.90;;;;;;5067770;28;20225;-71
2023/08/18 06:11:07;;;;;;;2.50;2.30;;;23.60;99.90;;;;;;5079438;28;20208;-70
2023/08/18 06:13:36;;;;;;;3.35;2.22;;;23.60;99.90;;;;;;5070278;28;20197;-71
2023/08/18 06:16:04;;;;;;;3.20;2.22;;;23.60;99.90;;;;;;5084964;28;20250;-72
2023/08/18 06:18:32;;;;;;;2.50;2.30;;;23.60;99.90;;;;;;5065887;28;20564;-72
2023/08/18 06:21:00;;;;;;;2.30;2.10;;;23.60;99.90;;;;;;5071282;28;20200;-72
2023/08/18 06:23:27;;;;;;;2.22;2.03;;;23.60;99.90;;;;;;5069030;28;20282;-72
2023/08/18 06:25:57;;;;;;;2.95;2.38;;;23.60;99.90;;;;;;5072887;28;20575;-71
2023/08/18 06:28:25;;;;;;;2.90;2.33;;;23.60;99.90;;;;;;5069782;28;20565;-72
2023/08/18 06:30:54;;;;;;;3.35;2.47;;;23.60;99.90;;;;;;5079973;28;20200;-72
2023/08/18 06:33:21;;;;;;;2.47;2.28;;;23.60;99.90;;;;;;5066212;28;20190;-72
2023/08/18 06:35:49;;;;;;;1.92;1.83;;;23.60;99.90;;;;;;5077625;28;20210;-72
2023/08/18 06:38:16;;;;;;;2.88;2.00;;;23.60;99.90;;;;;;5069747;28;20225;-72
2023/08/18 06:40:45;;;;;;;2.35;2.25;;;23.70;99.90;;;;;;5080024;28;20202;-73
2023/08/18 06:43:12;;;;;;;2.30;2.10;;;23.70;99.90;;;;;;5066703;28;20185;-72
2023/08/18 06:45:39;;;;;;;2.83;2.38;;;23.70;99.90;;;;;;5071296;28;20584;-73
2023/08/18 06:48:08;;;;;;;2.78;2.58;;;23.70;99.90;;;;;;5067304;28;20654;-73
2023/08/18 06:50:35;;;;;;;2.40;2.30;;;23.70;99.90;;;;;;5064610;28;20207;-73
2023/08/18 06:53:03;;;;;;;2.78;2.58;;;23.80;99.90;;;;;;5067390;28;20197;-73
2023/08/18 06:55:31;;;;;;;2.75;2.55;;;23.80;99.90;;;;;;5075547;28;20698;-72
2023/08/18 06:57:58;;;;;;;2.03;1.92;;;23.80;99.90;;;;;;5065968;28;20197;-72
2023/08/18 07:00:25;;;;;;;1.95;1.85;;;23.80;99.90;;;;;;5074527;28;20563;-72
2023/08/18 07:02:53;;;;;;;2.28;2.17;;;23.90;99.90;;;;;;5077876;28;20595;-72
2023/08/18 07:05:24;;;;;;;2.45;2.10;;;23.90;99.90;;;;;;5068806;28;20710;-72
2023/08/18 07:07:52;;;;;;;2.08;1.98;;;23.90;99.90;;;;;;5074798;28;20216;-72
2023/08/18 07:10:20;;;;;;;2.60;2.40;;;24.00;99.90;;;;;;5078704;28;20216;-70
2023/08/18 07:12:47;;;;;;;2.42;2.22;;;24.00;99.90;;;;;;5072077;28;20268;-71
2023/08/18 07:15:14;;;;;;;2.50;2.05;;;24.00;99.90;;;;;;5079564;28;20201;-73
2023/08/18 07:17:41;;;;;;;1.98;1.88;;;24.10;99.90;;;;;;5066775;28;20497;-72
2023/08/18 07:20:12;;;;;;;2.05;1.95;;;24.20;99.90;;;;;;5063320;28;20216;-72
2023/08/18 07:22:41;;;;;;;2.20;1.98;;;24.20;99.90;;;;;;5069498;28;20205;-72
2023/08/18 07:25:10;;;;;;;2.15;2.05;;;24.20;99.90;;;;;;5075156;28;20607;-72
2023/08/18 07:27:37;;;;;;;2.85;2.03;;;24.30;99.90;;;;;;5076194;28;20292;-72
2023/08/18 07:30:06;;;;;;;3.53;2.60;;;24.30;99.90;;;;;;5078748;28;20292;-72
2023/08/18 07:32:33;;;;;;;2.53;2.22;;;24.30;99.90;;;;;;5076464;28;20284;-72
2023/08/18 07:35:00;;;;;;;4.65;4.00;;;24.30;99.90;;;;;;5076359;28;20209;-72
2023/08/18 07:37:27;;;;;;;3.78;3.47;;;24.30;99.90;;;;;;5083321;28;20274;-73
2023/08/18 07:39:55;;;;;;;2.70;2.60;;;24.30;99.90;;;;;;5081839;28;20201;-68
2023/08/18 07:42:22;;;;;;;3.88;3.47;;;24.30;99.90;;;;;;5081084;28;20602;-68
2023/08/18 07:44:50;;;;;;;2.92;2.72;;;24.30;99.90;;;;;;5073294;28;20197;-68
2023/08/18 07:47:17;;;;;;;3.25;3.03;;;24.40;99.90;;;;;;5078060;28;20266;-69
2023/08/18 07:49:45;;;;;;;2.90;2.63;;;24.40;99.90;;;;;;5072560;28;20201;-68
2023/08/18 07:52:12;;;;;;;3.28;2.53;;;24.50;99.90;;;;;;5081076;28;20269;-68
2023/08/18 07:54:39;;;;;;;2.70;2.50;;;24.50;99.90;;;;;;5073434;28;20219;-68
2023/08/18 07:57:07;;;;;;;2.90;2.70;;;24.60;99.90;;;;;;5079614;28;20251;-68
2023/08/18 07:59:35;;;;;;;2.50;2.40;;;24.60;99.90;;;;;;5074854;28;20255;-68
2023/08/18 08:02:02;;;;;;;2.78;2.55;;;24.70;99.90;;;;;;5078687;28;20876;-68
2023/08/18 08:04:30;;;;;;;2.90;2.70;;;24.80;99.90;;;;;;5077455;28;20656;-68
2023/08/18 08:06:58;;;;;;;2.40;2.30;;;24.80;99.90;;;;;;5087981;28;20636;-68
2023/08/18 08:09:25;;;;;;;3.20;2.90;;;24.90;99.90;;;;;;5082029;28;20287;-68
2023/08/18 08:11:53;;;;;;;4.07;3.45;;;24.90;99.90;;;;;;5078855;28;20683;-68
2023/08/18 08:14:22;;;;;;;3.33;3.13;;;24.90;99.90;;;;;;5078337;28;20184;-69
2023/08/18 08:16:49;;;;;;;3.92;3.60;;;25.00;99.90;;;;;;5085747;28;20224;-68
2023/08/18 08:19:17;;;;;;;3.10;2.90;;;25.10;99.90;;;;;;5079507;28;20688;-67
2023/08/18 08:21:44;;;;;;;3.13;2.92;;;25.10;99.90;;;;;;5079704;28;20569;-67
2023/08/18 08:24:11;;;;;;;3.85;3.55;;;25.20;99.90;;;;;;5079807;28;20550;-68
2023/08/18 08:26:38;;;;;;;3.13;2.92;;;25.30;99.90;;;;;;5075546;28;20228;-67
2023/08/18 08:29:05;;;;;;;2.55;2.45;;;25.40;99.90;;;;;;5079863;28;20626;-67
2023/08/18 08:31:34;;;;;;;2.60;2.50;;;25.40;99.90;;;;;;5071076;28;20190;-68
2023/08/18 08:34:01;;;;;;;3.50;3.30;;;25.40;99.90;;;;;;5078436;28;20201;-68
2023/08/18 08:36:32;;;;;;;4.22;3.83;;;25.50;99.90;;;;;;5076028;28;20193;-67
2023/08/18 08:39:00;;;;;;;3.50;3.30;;;25.50;99.90;;;;;;5083646;28;20672;-67
2023/08/18 08:41:27;;;;;;;5.57;3.30;;;25.50;99.90;;;;;;5080002;28;20197;-67
2023/08/18 08:43:55;;;;;;;3.75;3.45;;;25.60;99.90;;;;;;5079672;28;20196;-67
2023/08/18 08:46:22;;;;;;;3.47;2.95;;;25.60;99.90;;;;;;5071561;28;20644;-67
2023/08/18 08:48:52;;;;;;;3.28;3.08;;;25.60;99.90;;;;;;5080731;28;20761;-67
2023/08/18 08:51:22;;;;;;;3.08;2.88;;;25.70;99.90;;;;;;5064174;28;20593;-67
2023/08/18 08:53:53;;;;;;;2.80;2.53;;;25.70;99.90;;;;;;5069559;28;20390;-67
2023/08/18 08:56:24;;;;;;;3.40;2.40;;;25.70;99.90;;;;;;5074044;28;20542;-67
2023/08/18 08:58:52;;;;;;;2.25;2.15;;;25.70;99.90;;;;;;5077571;28;20201;-67
2023/08/18 09:01:20;;;;;;;2.20;2.10;;;25.80;99.90;;;;;;5073978;28;20201;-67
2023/08/18 09:03:49;;;;;;;2.35;2.25;;;25.80;99.90;;;;;;5065659;28;21156;-67
2023/08/18 09:06:18;;;;;;;2.10;2.00;;;25.80;99.90;;;;;;5082974;28;20200;-67
2023/08/18 09:08:45;;;;;;;2.20;2.10;;;25.80;99.90;;;;;;5080995;28;20188;-67
2023/08/18 09:11:12;;;;;;;1.90;1.80;;;25.80;99.90;;;;;;5079079;28;20231;-67
2023/08/18 09:13:40;;;;;;;2.00;1.90;;;25.90;99.90;;;;;;5066802;28;20202;-67
2023/08/18 09:16:07;;;;;;;1.70;1.70;;;25.80;99.90;;;;;;5074215;28;20203;-67
2023/08/18 09:18:35;;;;;;;1.90;1.80;;;25.80;99.90;;;;;;5074751;28;20177;-67
2023/08/18 09:21:04;;;;;;;2.10;2.00;;;25.80;99.90;;;;;;5086198;28;20560;-67
2023/08/18 09:23:32;;;;;;;2.00;1.90;;;25.80;99.90;;;;;;5076015;28;20593;-66
2023/08/18 09:26:00;;;;;;;2.35;2.15;;;25.80;99.90;;;;;;5077994;28;20314;-66
2023/08/18 09:28:28;;;;;;;2.10;2.00;;;25.80;99.90;;;;;;5079625;28;20213;-66
2023/08/18 09:30:55;;;;;;;2.40;2.30;;;25.80;99.90;;;;;;5069625;28;20201;-67
2023/08/18 09:33:25;;;;;;;3.90;3.05;;;25.80;99.90;;;;;;5065582;28;20643;-66
2023/08/18 09:35:58;;;;;;;2.70;2.50;;;25.70;99.90;;;;;;5072942;28;20262;-67
2023/08/18 09:38:27;;;;;;;3.05;2.85;;;25.70;99.90;;;;;;5071073;28;20235;-67
2023/08/18 09:40:57;;;;;;;3.00;2.78;;;25.70;99.90;;;;;;5052169;28;20201;-67
2023/08/18 09:43:25;;;;;;;2.85;2.40;;;25.70;99.90;;;;;;5064346;28;20282;-67
2023/08/18 09:45:53;;;;;;;3.13;2.92;;;25.70;99.90;;;;;;5072725;28;20592;-66
2023/08/18 09:48:22;;;;;;;3.17;2.97;;;25.70;99.90;;;;;;5060518;28;20206;-67
2023/08/18 09:50:52;;;;;;;2.50;2.33;;;25.70;99.90;;;;;;5062471;28;20685;-67
2023/08/18 09:53:27;;;;;;;3.53;3.30;;;25.70;99.90;;;;;;5075686;28;20201;-67
2023/08/18 09:56:04;;;;;;;3.08;2.88;;;25.70;99.90;;;;;;5076730;28;20206;-67
2023/08/18 09:58:36;;;;;;;4.10;3.70;;;25.60;99.90;;;;;;5063638;28;20221;-67
2023/08/18 10:01:05;;;;;;;3.83;3.53;;;25.60;99.90;;;;;;5059047;28;20221;-67
2023/08/18 10:03:38;;;;;;;3.97;3.67;;;25.60;99.90;;;;;;5081792;28;20231;-67
2023/08/18 10:06:06;;;;;;;3.90;3.60;;;25.60;99.90;;;;;;5071592;28;20294;-67
2023/08/18 10:08:34;;;;;;;4.57;4.15;;;25.50;99.90;;;;;;5071330;28;20197;-67
2023/08/18 10:11:02;;;;;;;4.75;4.05;;;25.50;99.90;;;;;;5062537;28;20862;-67
2023/08/18 10:13:33;;;;;;;4.07;3.78;;;25.50;99.90;;;;;;5071258;28;20622;-67
2023/08/18 10:16:02;;;;;;;4.05;3.65;;;25.50;99.90;;;;;;5072817;28;20202;-67
2023/08/18 10:18:30;;;;;;;3.50;3.20;;;25.50;99.90;;;;;;5076746;28;20200;-67
2023/08/18 10:20:58;;;;;;;3.67;3.38;;;25.50;99.90;;;;;;5065779;28;20201;-67
2023/08/18 10:23:26;;;;;;;3.63;3.33;;;25.50;99.90;;;;;;5072573;28;20614;-67
2023/08/18 10:25:54;;;;;;;3.55;3.25;;;25.40;99.90;;;;;;5069418;28;20275;-67
2023/08/18 10:28:28;;;;;;;3.47;3.28;;;25.50;99.90;;;;;;5060723;28;20200;-67
2023/08/18 10:30:59;;;;;;;3.45;3.20;;;25.40;99.90;;;;;;5073187;28;20251;-67
2023/08/18 10:33:32;;;;;;;5.05;3.20;;;25.50;99.90;;;;;;5072707;28;20381;-67
2023/08/18 10:36:04;;;;;;;3.58;3.25;;;25.50;99.90;;;;;;5079798;28;20197;-67
2023/08/18 10:38:33;;;;;;;3.17;2.88;;;25.50;99.90;;;;;;5079564;28;20850;-67
2023/08/18 10:41:01;;;;;;;3.35;3.05;;;25.50;99.90;;;;;;5078284;28;20196;-67
2023/08/18 10:43:30;;;;;;;3.03;2.83;;;25.50;99.90;;;;;;5070054;28;20241;-67
2023/08/18 10:46:01;;;;;;;2.85;2.65;;;25.50;99.90;;;;;;5077326;28;20668;-67
2023/08/18 10:48:32;;;;;;;3.17;2.83;;;25.60;99.90;;;;;;5072255;28;20586;-67
2023/08/18 10:51:00;;;;;;;2.80;2.70;;;25.60;99.90;;;;;;5074550;28;20196;-67
2023/08/18 10:53:34;;;;;;;3.70;3.28;;;25.60;99.90;;;;;;5076231;28;20301;-67
2023/08/18 10:56:01;;;;;;;4.28;3.10;;;25.60;99.90;;;;;;5072219;28;20259;-68
2023/08/18 10:58:30;;;;;;;3.42;3.08;;;25.60;99.90;;;;;;5070971;28;20242;-67
2023/08/18 11:00:57;;;;;;;3.78;2.60;;;25.60;99.90;;;;;;5075844;28;20200;-67
2023/08/18 11:03:26;;;;;;;3.13;2.83;;;25.60;99.90;;;;;;5075612;28;20200;-68
2023/08/18 11:05:53;;;;;;;2.65;2.20;;;25.60;99.90;;;;;;5079271;28;20284;-68
2023/08/18 11:08:20;;;;;;;2.30;2.10;;;25.60;99.90;;;;;;5084358;28;20266;-67
2023/08/18 11:10:48;;;;;;;2.13;2.03;;;25.60;99.90;;;;;;5090191;28;20185;-67
2023/08/18 11:13:23;;;;;;;3.17;2.28;;;25.60;99.90;;;;;;5067431;28;20685;-67
2023/08/18 11:15:51;;;;;;;2.95;2.75;;;25.60;99.90;;;;;;5086677;28;20191;-68
2023/08/18 11:18:19;;;;;;;3.30;2.83;;;25.60;99.90;;;;;;5082080;28;20192;-68
2023/08/18 11:20:47;;;;;;;4.65;2.88;;;25.60;99.90;;;;;;5068578;28;20514;-67
2023/08/18 11:23:14;;;;;;;2.90;2.70;;;25.50;99.90;;;;;;5077835;28;20343;-68
2023/08/18 11:25:41;;;;;;;3.00;2.78;;;25.60;99.90;;;;;;5085718;28;20682;-68
2023/08/18 11:28:09;;;;;;;3.05;2.83;;;25.50;99.90;;;;;;5081415;28;20213;-68
2023/08/18 11:30:36;;;;;;;2.92;2.72;;;25.50;99.90;;;;;;5080690;28;20284;-68
2023/08/18 11:33:05;;;;;;;3.15;2.95;;;25.50;99.90;;;;;;5077285;28;20201;-67
2023/08/18 11:35:33;;;;;;;5.05;3.03;;;25.50;99.90;;;;;;5075709;28;20209;-67
2023/08/18 11:38:00;;;;;;;3.47;3.17;;;25.50;99.90;;;;;;5071962;28;20209;-67
2023/08/18 11:40:27;;;;;;;3.20;3.00;;;25.50;99.90;;;;;;5079751;28;20200;-67
2023/08/18 11:42:55;;;;;;;2.80;2.60;;;25.50;99.90;;;;;;5079774;28;20674;-67
2023/08/18 11:45:24;;;;;;;3.08;2.78;;;25.50;99.90;;;;;;5077566;28;20196;-67
2023/08/18 11:47:58;;;;;;;2.60;2.38;;;25.50;99.90;;;;;;5074430;28;20209;-67
2023/08/18 11:50:32;;;;;;;2.92;2.83;;;25.50;99.90;;;;;;5080668;28;20184;-67
2023/08/18 11:52:59;;;;;;;3.15;2.95;;;25.50;99.90;;;;;;5067976;28;20278;-67
2023/08/18 11:55:31;;;;;;;2.70;2.60;;;25.50;99.90;;;;;;5074011;28;20676;-67
2023/08/18 11:57:58;;;;;;;2.60;2.50;;;25.50;99.90;;;;;;5071175;28;20201;-67
2023/08/18 12:00:34;;;;;;;3.20;3.00;;;25.60;99.90;;;;;;5071040;28;20514;-67
2023/08/18 12:03:02;;;;;;;3.33;3.15;;;25.60;99.90;;;;;;5074434;28;20227;-67
2023/08/18 12:05:31;;;;;;;3.20;3.00;;;25.70;99.90;;;;;;5073495;28;20271;-67
2023/08/18 12:08:00;;;;;;;3.42;3.22;;;25.70;99.90;;;;;;5083443;28;20679;-67
2023/08/18 12:10:27;;;;;;;3.75;3.50;;;25.70;99.90;;;;;;5078733;28;20188;-67
2023/08/18 12:12:55;;;;;;;3.30;3.10;;;25.70;99.90;;;;;;5071185;28;20247;-66
2023/08/18 12:15:26;;;;;;;3.20;3.00;;;25.70;99.90;;;;;;5073764;28;20239;-66
2023/08/18 12:17:53;;;;;;;3.33;3.13;;;25.70;99.90;;;;;;5084517;28;20193;-67
2023/08/18 12:20:21;;;;;;;3.65;3.33;;;25.80;99.90;;;;;;5079876;28;20197;-67
2023/08/18 12:22:51;;;;;;;3.40;3.20;;;25.80;99.90;;;;;;5069660;28;20225;-67
2023/08/18 12:25:19;;;;;;;3.08;2.88;;;25.80;99.90;;;;;;5078348;28;20189;-67
2023/08/18 12:27:47;;;;;;;2.65;2.53;;;25.80;99.90;;;;;;5086988;28;20683;-67
2023/08/18 12:30:15;;;;;;;2.50;2.40;;;25.80;99.90;;;;;;5077656;28;20207;-67
2023/08/18 12:32:44;;;;;;;2.55;2.45;;;25.80;99.90;;;;;;5082829;28;20276;-67
2023/08/18 12:35:12;;;;;;;1.80;1.70;;;25.80;99.90;;;;;;5080292;28;20196;-67
2023/08/18 12:37:42;;;;;;;3.92;2.25;;;25.90;99.90;;;;;;5075003;28;20204;-67
2023/08/18 12:40:12;;;;;;;2.05;1.95;;;25.80;99.90;;;;;;5071642;28;20485;-67
2023/08/18 12:42:39;;;;;;;2.25;2.03;;;25.90;99.90;;;;;;5073955;28;20216;-67
2023/08/18 12:45:07;;;;;;;2.00;1.90;;;25.90;99.90;;;;;;5077509;28;20200;-67
2023/08/18 12:47:35;;;;;;;2.15;2.05;;;26.00;99.90;;;;;;5077595;28;20231;-67
2023/08/18 12:50:02;;;;;;;2.08;1.90;;;26.00;99.90;;;;;;5081577;28;20236;-67
2023/08/18 12:52:29;;;;;;;1.70;1.60;;;26.00;99.90;;;;;;5074633;28;20197;-67